sensor_id;sensor_type;location;lat;lon;timestamp;P1;durP1;ratioP1;P2;durP2;ratioP2
63008;SDS011;49099;28.428;-16.488;2022-12-11T00:01:15;5.95;;;2.53;;
63008;SDS011;49099;28.428;-16.488;2022-12-11T00:03:45;6.05;;;2.08;;
63008;SDS011;49099;28.428;-16.488;2022-12-11T00:06:14;7.57;;;2.33;;
63008;SDS011;49099;28.428;-16.488;2022-12-11T00:08:43;5.68;;;2.13;;
63008;SDS011;49099;28.428;-16.488;2022-12-11T00:11:12;7.82;;;2.10;;
63008;SDS011;49099;28.428;-16.488;2022-12-11T00:13:40;4.45;;;1.90;;
63008;SDS011;49099;28.428;-16.488;2022-12-11T00:16:08;4.45;;;1.98;;
63008;SDS011;49099;28.428;-16.488;2022-12-11T00:18:35;7.38;;;2.00;;
63008;SDS011;49099;28.428;-16.488;2022-12-11T00:21:03;4.13;;;2.30;;
63008;SDS011;49099;28.428;-16.488;2022-12-11T00:23:33;4.57;;;1.90;;
63008;SDS011;49099;28.428;-16.488;2022-12-11T00:26:12;6.88;;;2.03;;
63008;SDS011;49099;28.428;-16.488;2022-12-11T00:28:40;4.78;;;2.10;;
63008;SDS011;49099;28.428;-16.488;2022-12-11T00:31:10;5.00;;;2.05;;
63008;SDS011;49099;28.428;-16.488;2022-12-11T00:33:40;6.68;;;2.40;;
63008;SDS011;49099;28.428;-16.488;2022-12-11T00:36:15;4.43;;;2.00;;
63008;SDS011;49099;28.428;-16.488;2022-12-11T00:38:45;5.95;;;2.00;;
63008;SDS011;49099;28.428;-16.488;2022-12-11T00:41:12;6.22;;;1.92;;
63008;SDS011;49099;28.428;-16.488;2022-12-11T00:43:39;3.75;;;1.67;;
63008;SDS011;49099;28.428;-16.488;2022-12-11T00:46:06;7.18;;;1.90;;
63008;SDS011;49099;28.428;-16.488;2022-12-11T00:48:33;8.38;;;1.92;;
63008;SDS011;49099;28.428;-16.488;2022-12-11T00:51:00;14.60;;;2.55;;
63008;SDS011;49099;28.428;-16.488;2022-12-11T00:53:28;21.90;;;4.15;;
63008;SDS011;49099;28.428;-16.488;2022-12-11T00:55:55;17.00;;;3.33;;
63008;SDS011;49099;28.428;-16.488;2022-12-11T00:58:22;15.95;;;3.30;;
63008;SDS011;49099;28.428;-16.488;2022-12-11T01:00:50;11.43;;;3.00;;
63008;SDS011;49099;28.428;-16.488;2022-12-11T01:03:17;7.57;;;2.47;;
63008;SDS011;49099;28.428;-16.488;2022-12-11T01:05:53;9.30;;;2.47;;
63008;SDS011;49099;28.428;-16.488;2022-12-11T01:08:21;8.68;;;2.22;;
63008;SDS011;49099;28.428;-16.488;2022-12-11T01:10:48;5.22;;;2.00;;
63008;SDS011;49099;28.428;-16.488;2022-12-11T01:13:15;4.47;;;1.90;;
63008;SDS011;49099;28.428;-16.488;2022-12-11T01:15:43;4.47;;;1.80;;
63008;SDS011;49099;28.428;-16.488;2022-12-11T01:18:12;4.55;;;1.60;;
63008;SDS011;49099;28.428;-16.488;2022-12-11T01:20:41;3.88;;;1.60;;
63008;SDS011;49099;28.428;-16.488;2022-12-11T01:23:09;5.25;;;2.00;;
63008;SDS011;49099;28.428;-16.488;2022-12-11T01:25:38;6.50;;;1.60;;
63008;SDS011;49099;28.428;-16.488;2022-12-11T01:28:06;6.15;;;1.95;;
63008;SDS011;49099;28.428;-16.488;2022-12-11T01:30:34;6.00;;;2.10;;
63008;SDS011;49099;28.428;-16.488;2022-12-11T01:33:02;6.72;;;2.10;;
63008;SDS011;49099;28.428;-16.488;2022-12-11T01:35:29;4.97;;;2.10;;
63008;SDS011;49099;28.428;-16.488;2022-12-11T01:37:56;5.53;;;1.73;;
63008;SDS011;49099;28.428;-16.488;2022-12-11T01:40:24;9.20;;;1.80;;
63008;SDS011;49099;28.428;-16.488;2022-12-11T01:42:51;6.00;;;2.03;;
63008;SDS011;49099;28.428;-16.488;2022-12-11T01:48:22;4.30;;;1.70;;
63008;SDS011;49099;28.428;-16.488;2022-12-11T01:50:54;4.65;;;1.92;;
63008;SDS011;49099;28.428;-16.488;2022-12-11T01:53:26;3.90;;;1.63;;
63008;SDS011;49099;28.428;-16.488;2022-12-11T01:55:56;3.90;;;1.60;;
63008;SDS011;49099;28.428;-16.488;2022-12-11T01:58:27;3.22;;;1.33;;
63008;SDS011;49099;28.428;-16.488;2022-12-11T02:00:57;3.40;;;1.30;;
63008;SDS011;49099;28.428;-16.488;2022-12-11T02:03:26;3.25;;;1.45;;
63008;SDS011;49099;28.428;-16.488;2022-12-11T02:05:57;3.63;;;1.52;;
63008;SDS011;49099;28.428;-16.488;2022-12-11T02:08:25;4.63;;;1.60;;
63008;SDS011;49099;28.428;-16.488;2022-12-11T02:11:14;5.28;;;1.45;;
63008;SDS011;49099;28.428;-16.488;2022-12-11T02:13:55;4.00;;;1.27;;
63008;SDS011;49099;28.428;-16.488;2022-12-11T02:16:31;3.72;;;1.30;;
63008;SDS011;49099;28.428;-16.488;2022-12-11T02:21:49;3.25;;;1.30;;
63008;SDS011;49099;28.428;-16.488;2022-12-11T02:24:36;5.03;;;1.30;;
63008;SDS011;49099;28.428;-16.488;2022-12-11T02:27:32;2.50;;;1.20;;
63008;SDS011;49099;28.428;-16.488;2022-12-11T02:35:07;2.10;;;1.20;;
63008;SDS011;49099;28.428;-16.488;2022-12-11T02:37:56;2.35;;;1.20;;
63008;SDS011;49099;28.428;-16.488;2022-12-11T02:40:37;5.97;;;1.20;;
63008;SDS011;49099;28.428;-16.488;2022-12-11T02:43:07;2.83;;;1.05;;
63008;SDS011;49099;28.428;-16.488;2022-12-11T02:45:39;2.92;;;1.30;;
63008;SDS011;49099;28.428;-16.488;2022-12-11T02:48:08;5.85;;;1.70;;
63008;SDS011;49099;28.428;-16.488;2022-12-11T02:50:38;2.40;;;1.30;;
63008;SDS011;49099;28.428;-16.488;2022-12-11T02:53:10;5.43;;;1.90;;
63008;SDS011;49099;28.428;-16.488;2022-12-11T02:55:41;3.53;;;1.58;;
63008;SDS011;49099;28.428;-16.488;2022-12-11T02:58:15;5.00;;;2.00;;
63008;SDS011;49099;28.428;-16.488;2022-12-11T03:00:45;5.97;;;2.10;;
63008;SDS011;49099;28.428;-16.488;2022-12-11T03:03:13;6.32;;;2.22;;
63008;SDS011;49099;28.428;-16.488;2022-12-11T03:05:41;4.75;;;1.65;;
63008;SDS011;49099;28.428;-16.488;2022-12-11T03:08:08;7.47;;;2.03;;
63008;SDS011;49099;28.428;-16.488;2022-12-11T03:10:35;4.53;;;1.90;;
63008;SDS011;49099;28.428;-16.488;2022-12-11T03:13:03;7.57;;;1.75;;
63008;SDS011;49099;28.428;-16.488;2022-12-11T03:15:33;3.83;;;1.75;;
63008;SDS011;49099;28.428;-16.488;2022-12-11T03:18:05;4.65;;;1.67;;
63008;SDS011;49099;28.428;-16.488;2022-12-11T03:20:43;6.35;;;1.95;;
63008;SDS011;49099;28.428;-16.488;2022-12-11T03:29:09;7.10;;;2.00;;
63008;SDS011;49099;28.428;-16.488;2022-12-11T03:31:14;6.07;;;1.60;;
63008;SDS011;49099;28.428;-16.488;2022-12-11T03:33:48;3.53;;;1.60;;
63008;SDS011;49099;28.428;-16.488;2022-12-11T03:36:23;4.85;;;1.50;;
63008;SDS011;49099;28.428;-16.488;2022-12-11T03:38:56;5.78;;;1.55;;
63008;SDS011;49099;28.428;-16.488;2022-12-11T03:41:27;5.40;;;1.90;;
63008;SDS011;49099;28.428;-16.488;2022-12-11T03:43:59;6.25;;;1.73;;
63008;SDS011;49099;28.428;-16.488;2022-12-11T03:46:29;3.03;;;1.40;;
63008;SDS011;49099;28.428;-16.488;2022-12-11T03:49:00;3.03;;;1.50;;
63008;SDS011;49099;28.428;-16.488;2022-12-11T03:51:31;3.28;;;1.58;;
63008;SDS011;49099;28.428;-16.488;2022-12-11T03:54:00;3.03;;;1.60;;
63008;SDS011;49099;28.428;-16.488;2022-12-11T03:56:29;6.40;;;1.80;;
63008;SDS011;49099;28.428;-16.488;2022-12-11T03:58:59;4.07;;;1.70;;
63008;SDS011;49099;28.428;-16.488;2022-12-11T04:01:26;2.88;;;1.67;;
63008;SDS011;49099;28.428;-16.488;2022-12-11T04:03:54;4.00;;;2.03;;
63008;SDS011;49099;28.428;-16.488;2022-12-11T04:06:21;3.95;;;2.40;;
63008;SDS011;49099;28.428;-16.488;2022-12-11T04:08:48;3.90;;;1.95;;
63008;SDS011;49099;28.428;-16.488;2022-12-11T04:11:15;4.57;;;1.80;;
63008;SDS011;49099;28.428;-16.488;2022-12-11T04:14:01;3.92;;;1.90;;
63008;SDS011;49099;28.428;-16.488;2022-12-11T04:16:46;5.00;;;1.80;;
63008;SDS011;49099;28.428;-16.488;2022-12-11T04:19:14;5.43;;;1.80;;
63008;SDS011;49099;28.428;-16.488;2022-12-11T04:21:59;7.25;;;2.00;;
63008;SDS011;49099;28.428;-16.488;2022-12-11T04:24:48;4.57;;;1.70;;
63008;SDS011;49099;28.428;-16.488;2022-12-11T04:27:16;5.68;;;2.05;;
63008;SDS011;49099;28.428;-16.488;2022-12-11T04:30:04;4.28;;;1.90;;
63008;SDS011;49099;28.428;-16.488;2022-12-11T04:32:34;6.65;;;1.88;;
63008;SDS011;49099;28.428;-16.488;2022-12-11T04:35:01;8.00;;;1.90;;
63008;SDS011;49099;28.428;-16.488;2022-12-11T04:37:28;5.90;;;1.77;;
63008;SDS011;49099;28.428;-16.488;2022-12-11T04:39:55;8.68;;;2.17;;
63008;SDS011;49099;28.428;-16.488;2022-12-11T04:42:22;6.32;;;2.00;;
63008;SDS011;49099;28.428;-16.488;2022-12-11T04:44:50;8.07;;;1.70;;
63008;SDS011;49099;28.428;-16.488;2022-12-11T04:47:17;6.75;;;1.80;;
63008;SDS011;49099;28.428;-16.488;2022-12-11T04:49:44;4.78;;;1.70;;
63008;SDS011;49099;28.428;-16.488;2022-12-11T04:52:11;5.13;;;2.00;;
63008;SDS011;49099;28.428;-16.488;2022-12-11T04:54:38;6.93;;;1.42;;
63008;SDS011;49099;28.428;-16.488;2022-12-11T04:57:05;5.60;;;1.60;;
63008;SDS011;49099;28.428;-16.488;2022-12-11T04:59:32;3.67;;;1.27;;
63008;SDS011;49099;28.428;-16.488;2022-12-11T05:02:00;3.47;;;1.30;;
63008;SDS011;49099;28.428;-16.488;2022-12-11T05:04:33;2.75;;;1.30;;
63008;SDS011;49099;28.428;-16.488;2022-12-11T05:07:01;3.42;;;1.40;;
63008;SDS011;49099;28.428;-16.488;2022-12-11T05:09:28;4.50;;;1.55;;
63008;SDS011;49099;28.428;-16.488;2022-12-11T05:11:55;3.38;;;1.40;;
63008;SDS011;49099;28.428;-16.488;2022-12-11T05:14:22;4.75;;;1.40;;
63008;SDS011;49099;28.428;-16.488;2022-12-11T05:16:50;2.92;;;1.35;;
63008;SDS011;49099;28.428;-16.488;2022-12-11T05:19:17;2.88;;;1.33;;
63008;SDS011;49099;28.428;-16.488;2022-12-11T05:21:44;3.90;;;1.50;;
63008;SDS011;49099;28.428;-16.488;2022-12-11T05:24:11;5.70;;;1.40;;
63008;SDS011;49099;28.428;-16.488;2022-12-11T05:26:38;4.93;;;1.38;;
63008;SDS011;49099;28.428;-16.488;2022-12-11T05:29:05;4.20;;;1.30;;
63008;SDS011;49099;28.428;-16.488;2022-12-11T05:31:32;5.15;;;1.40;;
63008;SDS011;49099;28.428;-16.488;2022-12-11T05:33:59;4.78;;;1.58;;
63008;SDS011;49099;28.428;-16.488;2022-12-11T05:36:27;2.90;;;1.45;;
63008;SDS011;49099;28.428;-16.488;2022-12-11T05:38:57;4.13;;;1.40;;
63008;SDS011;49099;28.428;-16.488;2022-12-11T05:41:26;4.78;;;1.20;;
63008;SDS011;49099;28.428;-16.488;2022-12-11T05:43:54;4.75;;;1.40;;
63008;SDS011;49099;28.428;-16.488;2022-12-11T05:46:26;8.85;;;1.50;;
63008;SDS011;49099;28.428;-16.488;2022-12-11T05:48:56;3.15;;;1.27;;
63008;SDS011;49099;28.428;-16.488;2022-12-11T05:51:26;4.43;;;1.35;;
63008;SDS011;49099;28.428;-16.488;2022-12-11T05:53:55;3.78;;;1.38;;
63008;SDS011;49099;28.428;-16.488;2022-12-11T05:56:24;4.28;;;1.48;;
63008;SDS011;49099;28.428;-16.488;2022-12-11T05:58:53;5.03;;;1.33;;
63008;SDS011;49099;28.428;-16.488;2022-12-11T06:01:23;6.55;;;1.42;;
63008;SDS011;49099;28.428;-16.488;2022-12-11T06:04:01;4.57;;;1.40;;
63008;SDS011;49099;28.428;-16.488;2022-12-11T06:06:30;4.05;;;1.52;;
63008;SDS011;49099;28.428;-16.488;2022-12-11T06:08:57;7.85;;;1.45;;
63008;SDS011;49099;28.428;-16.488;2022-12-11T06:11:26;5.43;;;1.45;;
63008;SDS011;49099;28.428;-16.488;2022-12-11T06:13:55;5.30;;;1.60;;
63008;SDS011;49099;28.428;-16.488;2022-12-11T06:16:23;5.10;;;1.38;;
63008;SDS011;49099;28.428;-16.488;2022-12-11T06:18:51;4.55;;;1.60;;
63008;SDS011;49099;28.428;-16.488;2022-12-11T06:21:24;3.83;;;1.30;;
63008;SDS011;49099;28.428;-16.488;2022-12-11T06:23:53;4.20;;;1.60;;
63008;SDS011;49099;28.428;-16.488;2022-12-11T06:26:22;3.10;;;1.40;;
63008;SDS011;49099;28.428;-16.488;2022-12-11T06:28:50;3.15;;;1.35;;
63008;SDS011;49099;28.428;-16.488;2022-12-11T06:31:17;4.35;;;1.40;;
63008;SDS011;49099;28.428;-16.488;2022-12-11T06:33:45;3.83;;;1.50;;
63008;SDS011;49099;28.428;-16.488;2022-12-11T06:36:13;5.30;;;1.42;;
63008;SDS011;49099;28.428;-16.488;2022-12-11T06:38:43;7.90;;;1.80;;
63008;SDS011;49099;28.428;-16.488;2022-12-11T06:41:10;4.30;;;1.67;;
63008;SDS011;49099;28.428;-16.488;2022-12-11T06:43:38;3.47;;;1.45;;
63008;SDS011;49099;28.428;-16.488;2022-12-11T06:46:07;4.60;;;1.70;;
63008;SDS011;49099;28.428;-16.488;2022-12-11T06:48:37;3.10;;;1.42;;
63008;SDS011;49099;28.428;-16.488;2022-12-11T06:51:05;5.05;;;1.73;;
63008;SDS011;49099;28.428;-16.488;2022-12-11T06:53:33;3.38;;;1.45;;
63008;SDS011;49099;28.428;-16.488;2022-12-11T06:56:04;2.97;;;1.30;;
63008;SDS011;49099;28.428;-16.488;2022-12-11T06:58:33;3.03;;;1.30;;
63008;SDS011;49099;28.428;-16.488;2022-12-11T07:01:02;3.78;;;1.45;;
63008;SDS011;49099;28.428;-16.488;2022-12-11T07:03:30;4.18;;;1.25;;
63008;SDS011;49099;28.428;-16.488;2022-12-11T07:06:00;2.90;;;1.33;;
63008;SDS011;49099;28.428;-16.488;2022-12-11T07:08:28;5.65;;;1.50;;
63008;SDS011;49099;28.428;-16.488;2022-12-11T07:11:01;1.58;;;1.35;;
63008;SDS011;49099;28.428;-16.488;2022-12-11T07:13:29;4.03;;;1.40;;
63008;SDS011;49099;28.428;-16.488;2022-12-11T07:15:57;4.40;;;1.30;;
63008;SDS011;49099;28.428;-16.488;2022-12-11T07:18:25;6.78;;;1.45;;
63008;SDS011;49099;28.428;-16.488;2022-12-11T07:20:52;3.50;;;1.30;;
63008;SDS011;49099;28.428;-16.488;2022-12-11T07:23:19;2.08;;;1.15;;
63008;SDS011;49099;28.428;-16.488;2022-12-11T07:25:46;2.92;;;1.30;;
63008;SDS011;49099;28.428;-16.488;2022-12-11T07:28:13;3.88;;;1.73;;
63008;SDS011;49099;28.428;-16.488;2022-12-11T07:30:42;4.97;;;1.73;;
63008;SDS011;49099;28.428;-16.488;2022-12-11T07:33:09;3.28;;;1.30;;
63008;SDS011;49099;28.428;-16.488;2022-12-11T07:35:36;2.92;;;1.35;;
63008;SDS011;49099;28.428;-16.488;2022-12-11T07:38:03;2.80;;;1.20;;
63008;SDS011;49099;28.428;-16.488;2022-12-11T07:40:31;3.30;;;1.55;;
63008;SDS011;49099;28.428;-16.488;2022-12-11T07:43:03;4.00;;;1.30;;
63008;SDS011;49099;28.428;-16.488;2022-12-11T07:45:30;4.95;;;1.20;;
63008;SDS011;49099;28.428;-16.488;2022-12-11T07:47:57;4.53;;;1.20;;
63008;SDS011;49099;28.428;-16.488;2022-12-11T07:50:24;4.68;;;1.23;;
63008;SDS011;49099;28.428;-16.488;2022-12-11T07:52:52;3.78;;;1.40;;
63008;SDS011;49099;28.428;-16.488;2022-12-11T07:55:19;4.30;;;1.10;;
63008;SDS011;49099;28.428;-16.488;2022-12-11T07:57:46;2.03;;;1.10;;
63008;SDS011;49099;28.428;-16.488;2022-12-11T08:00:13;4.97;;;1.40;;
63008;SDS011;49099;28.428;-16.488;2022-12-11T08:02:40;1.88;;;1.20;;
63008;SDS011;49099;28.428;-16.488;2022-12-11T08:05:08;3.75;;;1.50;;
63008;SDS011;49099;28.428;-16.488;2022-12-11T08:07:35;4.82;;;1.58;;
63008;SDS011;49099;28.428;-16.488;2022-12-11T08:10:03;2.63;;;1.40;;
63008;SDS011;49099;28.428;-16.488;2022-12-11T08:12:30;5.22;;;1.50;;
63008;SDS011;49099;28.428;-16.488;2022-12-11T08:14:57;3.25;;;1.55;;
63008;SDS011;49099;28.428;-16.488;2022-12-11T08:17:25;1.85;;;1.30;;
63008;SDS011;49099;28.428;-16.488;2022-12-11T08:19:59;2.90;;;1.50;;
63008;SDS011;49099;28.428;-16.488;2022-12-11T08:22:26;3.28;;;1.30;;
63008;SDS011;49099;28.428;-16.488;2022-12-11T08:24:53;3.05;;;1.40;;
63008;SDS011;49099;28.428;-16.488;2022-12-11T08:27:20;2.17;;;1.20;;
63008;SDS011;49099;28.428;-16.488;2022-12-11T08:29:47;4.32;;;1.40;;
63008;SDS011;49099;28.428;-16.488;2022-12-11T08:32:14;2.53;;;1.20;;
63008;SDS011;49099;28.428;-16.488;2022-12-11T08:34:42;4.47;;;1.15;;
63008;SDS011;49099;28.428;-16.488;2022-12-11T08:37:09;2.20;;;1.20;;
63008;SDS011;49099;28.428;-16.488;2022-12-11T08:39:37;2.47;;;1.10;;
63008;SDS011;49099;28.428;-16.488;2022-12-11T08:42:05;3.35;;;0.90;;
63008;SDS011;49099;28.428;-16.488;2022-12-11T08:44:32;2.13;;;0.98;;
63008;SDS011;49099;28.428;-16.488;2022-12-11T08:47:00;1.73;;;0.85;;
63008;SDS011;49099;28.428;-16.488;2022-12-11T08:49:27;1.83;;;0.85;;
63008;SDS011;49099;28.428;-16.488;2022-12-11T08:51:59;1.23;;;0.73;;
63008;SDS011;49099;28.428;-16.488;2022-12-11T08:54:28;2.17;;;0.90;;
63008;SDS011;49099;28.428;-16.488;2022-12-11T08:56:55;3.65;;;0.93;;
63008;SDS011;49099;28.428;-16.488;2022-12-11T08:59:23;1.05;;;0.80;;
63008;SDS011;49099;28.428;-16.488;2022-12-11T09:01:51;4.18;;;0.80;;
63008;SDS011;49099;28.428;-16.488;2022-12-11T09:04:20;2.03;;;0.70;;
63008;SDS011;49099;28.428;-16.488;2022-12-11T09:06:47;2.15;;;0.70;;
63008;SDS011;49099;28.428;-16.488;2022-12-11T09:09:15;2.15;;;0.60;;
63008;SDS011;49099;28.428;-16.488;2022-12-11T09:11:42;1.88;;;0.70;;
63008;SDS011;49099;28.428;-16.488;2022-12-11T09:14:09;1.98;;;0.80;;
63008;SDS011;49099;28.428;-16.488;2022-12-11T09:16:37;1.42;;;0.80;;
63008;SDS011;49099;28.428;-16.488;2022-12-11T09:19:06;1.10;;;0.80;;
63008;SDS011;49099;28.428;-16.488;2022-12-11T09:21:37;1.52;;;1.00;;
63008;SDS011;49099;28.428;-16.488;2022-12-11T09:24:04;1.45;;;0.80;;
63008;SDS011;49099;28.428;-16.488;2022-12-11T09:26:31;2.45;;;0.73;;
63008;SDS011;49099;28.428;-16.488;2022-12-11T09:29:00;2.67;;;1.00;;
63008;SDS011;49099;28.428;-16.488;2022-12-11T09:31:33;5.95;;;1.08;;
63008;SDS011;49099;28.428;-16.488;2022-12-11T09:34:06;5.82;;;1.20;;
63008;SDS011;49099;28.428;-16.488;2022-12-11T09:36:34;3.67;;;1.40;;
63008;SDS011;49099;28.428;-16.488;2022-12-11T09:39:05;4.32;;;1.55;;
63008;SDS011;49099;28.428;-16.488;2022-12-11T09:47:21;2.47;;;1.15;;
63008;SDS011;49099;28.428;-16.488;2022-12-11T09:55:29;2.97;;;1.40;;
63008;SDS011;49099;28.428;-16.488;2022-12-11T09:58:05;4.93;;;1.63;;
63008;SDS011;49099;28.428;-16.488;2022-12-11T10:00:40;6.55;;;1.50;;
63008;SDS011;49099;28.428;-16.488;2022-12-11T10:03:19;2.38;;;1.27;;
63008;SDS011;49099;28.428;-16.488;2022-12-11T10:09:11;5.10;;;1.38;;
63008;SDS011;49099;28.428;-16.488;2022-12-11T10:19:51;4.45;;;1.45;;
63008;SDS011;49099;28.428;-16.488;2022-12-11T10:22:25;3.05;;;1.23;;
63008;SDS011;49099;28.428;-16.488;2022-12-11T10:24:56;2.80;;;1.20;;
63008;SDS011;49099;28.428;-16.488;2022-12-11T10:27:41;3.00;;;1.10;;
63008;SDS011;49099;28.428;-16.488;2022-12-11T10:30:17;8.90;;;1.30;;
63008;SDS011;49099;28.428;-16.488;2022-12-11T10:37:54;2.60;;;1.00;;
63008;SDS011;49099;28.428;-16.488;2022-12-11T10:40:27;2.17;;;1.00;;
63008;SDS011;49099;28.428;-16.488;2022-12-11T10:42:56;3.00;;;0.90;;
63008;SDS011;49099;28.428;-16.488;2022-12-11T10:45:23;5.43;;;1.40;;
63008;SDS011;49099;28.428;-16.488;2022-12-11T10:48:00;4.95;;;1.30;;
63008;SDS011;49099;28.428;-16.488;2022-12-11T10:50:28;2.22;;;1.10;;
63008;SDS011;49099;28.428;-16.488;2022-12-11T10:52:55;5.18;;;1.30;;
63008;SDS011;49099;28.428;-16.488;2022-12-11T10:55:27;3.38;;;1.20;;
63008;SDS011;49099;28.428;-16.488;2022-12-11T10:58:00;1.98;;;1.10;;
63008;SDS011;49099;28.428;-16.488;2022-12-11T11:00:36;2.13;;;1.05;;
63008;SDS011;49099;28.428;-16.488;2022-12-11T11:03:23;2.25;;;0.90;;
63008;SDS011;49099;28.428;-16.488;2022-12-11T11:08:39;2.42;;;1.02;;
63008;SDS011;49099;28.428;-16.488;2022-12-11T11:14:19;5.05;;;1.55;;
63008;SDS011;49099;28.428;-16.488;2022-12-11T11:16:49;8.25;;;1.80;;
63008;SDS011;49099;28.428;-16.488;2022-12-11T11:19:30;3.78;;;1.45;;
63008;SDS011;49099;28.428;-16.488;2022-12-11T11:22:01;4.28;;;1.40;;
63008;SDS011;49099;28.428;-16.488;2022-12-11T11:24:37;5.15;;;1.58;;
63008;SDS011;49099;28.428;-16.488;2022-12-11T11:27:10;4.75;;;1.65;;
63008;SDS011;49099;28.428;-16.488;2022-12-11T11:29:53;8.32;;;2.15;;
63008;SDS011;49099;28.428;-16.488;2022-12-11T11:32:32;7.82;;;2.00;;
63008;SDS011;49099;28.428;-16.488;2022-12-11T11:40:14;5.10;;;1.50;;
63008;SDS011;49099;28.428;-16.488;2022-12-11T11:42:51;8.48;;;2.00;;
63008;SDS011;49099;28.428;-16.488;2022-12-11T11:45:26;17.63;;;4.20;;
63008;SDS011;49099;28.428;-16.488;2022-12-11T11:47:59;21.20;;;4.03;;
63008;SDS011;49099;28.428;-16.488;2022-12-11T11:50:37;18.73;;;3.58;;
63008;SDS011;49099;28.428;-16.488;2022-12-11T11:53:21;16.63;;;3.63;;
63008;SDS011;49099;28.428;-16.488;2022-12-11T11:58:35;9.70;;;2.40;;
63008;SDS011;49099;28.428;-16.488;2022-12-11T12:01:13;13.88;;;3.00;;
63008;SDS011;49099;28.428;-16.488;2022-12-11T12:06:17;17.88;;;3.50;;
63008;SDS011;49099;28.428;-16.488;2022-12-11T12:09:12;18.67;;;4.13;;
63008;SDS011;49099;28.428;-16.488;2022-12-11T12:11:48;15.23;;;3.63;;
63008;SDS011;49099;28.428;-16.488;2022-12-11T12:25:37;25.00;;;5.32;;
63008;SDS011;49099;28.428;-16.488;2022-12-11T12:30:43;28.15;;;5.57;;
63008;SDS011;49099;28.428;-16.488;2022-12-11T12:38:36;42.83;;;8.38;;
63008;SDS011;49099;28.428;-16.488;2022-12-11T12:44:19;25.85;;;5.50;;
63008;SDS011;49099;28.428;-16.488;2022-12-11T12:46:54;29.88;;;5.72;;
63008;SDS011;49099;28.428;-16.488;2022-12-11T12:49:47;21.13;;;5.70;;
63008;SDS011;49099;28.428;-16.488;2022-12-11T12:52:18;26.85;;;5.32;;
63008;SDS011;49099;28.428;-16.488;2022-12-11T12:54:55;29.10;;;5.53;;
63008;SDS011;49099;28.428;-16.488;2022-12-11T12:57:47;14.77;;;3.70;;
63008;SDS011;49099;28.428;-16.488;2022-12-11T13:02:53;18.00;;;3.80;;
63008;SDS011;49099;28.428;-16.488;2022-12-11T13:05:25;15.10;;;3.90;;
63008;SDS011;49099;28.428;-16.488;2022-12-11T13:07:59;20.52;;;4.68;;
63008;SDS011;49099;28.428;-16.488;2022-12-11T13:10:30;12.70;;;3.20;;
63008;SDS011;49099;28.428;-16.488;2022-12-11T13:15:35;12.70;;;2.85;;
63008;SDS011;49099;28.428;-16.488;2022-12-11T13:20:59;12.90;;;3.47;;
63008;SDS011;49099;28.428;-16.488;2022-12-11T13:23:28;10.93;;;2.60;;
63008;SDS011;49099;28.428;-16.488;2022-12-11T13:26:01;11.73;;;2.90;;
63008;SDS011;49099;28.428;-16.488;2022-12-11T13:28:45;10.15;;;2.75;;
63008;SDS011;49099;28.428;-16.488;2022-12-11T13:33:51;14.32;;;3.03;;
63008;SDS011;49099;28.428;-16.488;2022-12-11T13:41:26;17.17;;;3.40;;
63008;SDS011;49099;28.428;-16.488;2022-12-11T13:43:54;15.18;;;3.40;;
63008;SDS011;49099;28.428;-16.488;2022-12-11T13:46:26;12.70;;;3.40;;
63008;SDS011;49099;28.428;-16.488;2022-12-11T13:48:58;18.83;;;4.72;;
63008;SDS011;49099;28.428;-16.488;2022-12-11T13:51:28;30.35;;;5.63;;
63008;SDS011;49099;28.428;-16.488;2022-12-11T13:56:30;34.55;;;6.82;;
63008;SDS011;49099;28.428;-16.488;2022-12-11T13:58:57;24.80;;;5.93;;
63008;SDS011;49099;28.428;-16.488;2022-12-11T14:01:28;28.48;;;5.70;;
63008;SDS011;49099;28.428;-16.488;2022-12-11T14:04:01;19.33;;;4.68;;
63008;SDS011;49099;28.428;-16.488;2022-12-11T14:06:32;17.95;;;4.13;;
63008;SDS011;49099;28.428;-16.488;2022-12-11T14:09:02;15.02;;;3.85;;
63008;SDS011;49099;28.428;-16.488;2022-12-11T14:11:32;18.80;;;4.43;;
63008;SDS011;49099;28.428;-16.488;2022-12-11T14:14:02;20.08;;;4.75;;
63008;SDS011;49099;28.428;-16.488;2022-12-11T14:16:32;16.90;;;4.55;;
63008;SDS011;49099;28.428;-16.488;2022-12-11T14:19:01;30.63;;;5.90;;
63008;SDS011;49099;28.428;-16.488;2022-12-11T14:21:30;34.70;;;6.72;;
63008;SDS011;49099;28.428;-16.488;2022-12-11T14:23:59;26.80;;;5.78;;
63008;SDS011;49099;28.428;-16.488;2022-12-11T14:26:33;27.98;;;5.60;;
63008;SDS011;49099;28.428;-16.488;2022-12-11T14:29:03;22.10;;;4.90;;
63008;SDS011;49099;28.428;-16.488;2022-12-11T14:31:41;21.45;;;4.63;;
63008;SDS011;49099;28.428;-16.488;2022-12-11T14:34:13;14.25;;;3.90;;
63008;SDS011;49099;28.428;-16.488;2022-12-11T14:36:44;32.50;;;5.80;;
63008;SDS011;49099;28.428;-16.488;2022-12-11T14:39:15;38.47;;;6.40;;
63008;SDS011;49099;28.428;-16.488;2022-12-11T14:41:46;18.58;;;5.25;;
63008;SDS011;49099;28.428;-16.488;2022-12-11T14:44:19;25.83;;;5.32;;
63008;SDS011;49099;28.428;-16.488;2022-12-11T14:47:33;23.30;;;5.13;;
63008;SDS011;49099;28.428;-16.488;2022-12-11T14:52:18;18.90;;;4.30;;
63008;SDS011;49099;28.428;-16.488;2022-12-11T14:57:54;30.35;;;5.80;;
63008;SDS011;49099;28.428;-16.488;2022-12-11T15:00:26;33.63;;;6.05;;
63008;SDS011;49099;28.428;-16.488;2022-12-11T15:02:59;24.10;;;5.25;;
63008;SDS011;49099;28.428;-16.488;2022-12-11T15:05:31;26.55;;;4.47;;
63008;SDS011;49099;28.428;-16.488;2022-12-11T15:10:37;12.57;;;2.63;;
63008;SDS011;49099;28.428;-16.488;2022-12-11T15:13:07;18.50;;;3.67;;
63008;SDS011;49099;28.428;-16.488;2022-12-11T15:15:45;19.77;;;4.95;;
63008;SDS011;49099;28.428;-16.488;2022-12-11T15:18:20;37.72;;;7.28;;
63008;SDS011;49099;28.428;-16.488;2022-12-11T15:20:58;22.73;;;5.55;;
63008;SDS011;49099;28.428;-16.488;2022-12-11T15:23:27;21.42;;;4.90;;
63008;SDS011;49099;28.428;-16.488;2022-12-11T15:25:56;24.55;;;5.13;;
63008;SDS011;49099;28.428;-16.488;2022-12-11T15:28:29;22.90;;;5.18;;
63008;SDS011;49099;28.428;-16.488;2022-12-11T15:31:33;14.23;;;3.85;;
63008;SDS011;49099;28.428;-16.488;2022-12-11T15:33:54;19.25;;;3.85;;
63008;SDS011;49099;28.428;-16.488;2022-12-11T15:38:52;20.48;;;4.47;;
63008;SDS011;49099;28.428;-16.488;2022-12-11T15:41:19;25.92;;;4.95;;
63008;SDS011;49099;28.428;-16.488;2022-12-11T15:43:47;18.20;;;4.18;;
63008;SDS011;49099;28.428;-16.488;2022-12-11T15:46:20;11.57;;;3.22;;
63008;SDS011;49099;28.428;-16.488;2022-12-11T15:48:48;39.15;;;6.75;;
63008;SDS011;49099;28.428;-16.488;2022-12-11T15:51:15;24.30;;;5.47;;
63008;SDS011;49099;28.428;-16.488;2022-12-11T15:53:42;23.55;;;5.38;;
63008;SDS011;49099;28.428;-16.488;2022-12-11T15:56:16;27.08;;;5.47;;
63008;SDS011;49099;28.428;-16.488;2022-12-11T15:58:43;20.58;;;4.25;;
63008;SDS011;49099;28.428;-16.488;2022-12-11T16:01:11;20.38;;;4.60;;
63008;SDS011;49099;28.428;-16.488;2022-12-11T16:03:38;23.42;;;4.95;;
63008;SDS011;49099;28.428;-16.488;2022-12-11T16:06:08;15.52;;;3.83;;
63008;SDS011;49099;28.428;-16.488;2022-12-11T16:08:37;20.60;;;4.07;;
63008;SDS011;49099;28.428;-16.488;2022-12-11T16:11:04;40.13;;;6.75;;
63008;SDS011;49099;28.428;-16.488;2022-12-11T16:13:32;27.02;;;6.03;;
63008;SDS011;49099;28.428;-16.488;2022-12-11T16:15:59;17.27;;;4.30;;
63008;SDS011;49099;28.428;-16.488;2022-12-11T16:18:26;17.42;;;3.85;;
63008;SDS011;49099;28.428;-16.488;2022-12-11T16:20:53;14.57;;;3.35;;
63008;SDS011;49099;28.428;-16.488;2022-12-11T16:23:20;13.57;;;2.83;;
63008;SDS011;49099;28.428;-16.488;2022-12-11T16:25:47;17.40;;;3.47;;
63008;SDS011;49099;28.428;-16.488;2022-12-11T16:28:15;12.52;;;3.00;;
63008;SDS011;49099;28.428;-16.488;2022-12-11T16:30:46;18.85;;;3.45;;